KAF2 UHPP-RKSI
Flight info
| Callsign | KAF2 |
|---|---|
| Flight time | N/A |
| Altitude | 38000 |
| Route | SAMIK4M SAMIK T577 UB G227 BAGOM R810 BULOD L771 NULAR B467 KANSU/N0452F380 Y233 BUSKO B467 KAE G597 BIKSI DCT KARBU KARBU3C |
| Aircraft | A319/M-SDE3FGHIRWY/LB1 |
Departure
| Time | 2026-04-21 13:01 |
|---|---|
| Airport | Yelizovo Airport (UHPP) |
Arrival
| Time | N/A |
|---|---|
| Airport | Incheon International Airport (RKSI) |
| Time | Latitude | Longitude | Altitude | Speed | Heading |
|---|---|---|---|---|---|
| 2026-04-21 12:46 | 53.16985 | 158.42614 | 170 ft | 0 kts | 239° |
| 2026-04-21 12:55 | 53.16995 | 158.42642 | 200 ft | 4 kts | 233° |
| 2026-04-21 12:55 | 53.17012 | 158.42670 | 207 ft | 4 kts | 187° |
| 2026-04-21 12:55 | 53.17022 | 158.42668 | 208 ft | 0 kts | 118° |
| 2026-04-21 12:57 | 53.17021 | 158.42689 | 203 ft | 9 kts | 98° |
| 2026-04-21 12:57 | 53.17066 | 158.42914 | 263 ft | 27 kts | 59° |
| 2026-04-21 12:58 | 53.17167 | 158.43203 | 262 ft | 31 kts | 59° |
| 2026-04-21 12:58 | 53.17269 | 158.43493 | 264 ft | 29 kts | 59° |
| 2026-04-21 12:58 | 53.17367 | 158.43775 | 175 ft | 27 kts | 60° |
| 2026-04-21 12:58 | 53.17441 | 158.43979 | 119 ft | 21 kts | 60° |
| 2026-04-21 12:59 | 53.17504 | 158.44217 | 121 ft | 24 kts | 68° |
| 2026-04-21 12:59 | 53.17551 | 158.44408 | 123 ft | 12 kts | 68° |
| 2026-04-21 12:59 | 53.17556 | 158.44429 | 123 ft | 0 kts | 68° |
| 2026-04-21 13:00 | 53.17563 | 158.44455 | 122 ft | 9 kts | 66° |
| 2026-04-21 13:00 | 53.17549 | 158.44636 | 127 ft | 28 kts | 150° |
| 2026-04-21 13:00 | 53.17197 | 158.44883 | 125 ft | 89 kts | 157° |
| 2026-04-21 13:01 | 53.16420 | 158.45423 | 126 ft | 151 kts | 157° |
| 2026-04-21 13:01 | 53.15410 | 158.46070 | 792 ft | 155 kts | 158° |
| 2026-04-21 13:01 | 53.14415 | 158.46754 | 1632 ft | 156 kts | 155° |
| 2026-04-21 13:01 | 53.13341 | 158.47518 | 2210 ft | 180 kts | 156° |
| 2026-04-21 13:02 | 53.12110 | 158.48394 | 2853 ft | 204 kts | 157° |
| 2026-04-21 13:02 | 53.10725 | 158.49370 | 3567 ft | 228 kts | 157° |
| 2026-04-21 13:02 | 53.07558 | 158.51571 | 5504 ft | 258 kts | 156° |
| 2026-04-21 13:03 | 53.05896 | 158.52715 | 6623 ft | 266 kts | 155° |
| 2026-04-21 13:03 | 53.04164 | 158.53904 | 7679 ft | 273 kts | 155° |
| 2026-04-21 13:03 | 53.02390 | 158.55119 | 8771 ft | 278 kts | 155° |
| 2026-04-21 13:03 | 53.00580 | 158.56350 | 9870 ft | 284 kts | 156° |
| 2026-04-21 13:04 | 52.98613 | 158.56968 | 10789 ft | 296 kts | 179° |
| 2026-04-21 13:04 | 52.96533 | 158.56126 | 11201 ft | 325 kts | 207° |
| 2026-04-21 13:04 | 52.94796 | 158.53591 | 11650 ft | 344 kts | 237° |
| 2026-04-21 13:04 | 52.93941 | 158.49889 | 12430 ft | 349 kts | 264° |
| 2026-04-21 13:05 | 52.94088 | 158.45883 | 13305 ft | 350 kts | 282° |
| 2026-04-21 13:05 | 52.94524 | 158.41897 | 14192 ft | 353 kts | 283° |
| 2026-04-21 13:05 | 52.95000 | 158.37880 | 14976 ft | 357 kts | 284° |
| 2026-04-21 13:05 | 52.95496 | 158.33831 | 15762 ft | 360 kts | 284° |
| 2026-04-21 13:06 | 52.95998 | 158.29736 | 16550 ft | 364 kts | 284° |
| 2026-04-21 13:06 | 52.96498 | 158.25593 | 17321 ft | 369 kts | 284° |
| 2026-04-21 13:06 | 52.96989 | 158.21455 | 18089 ft | 372 kts | 283° |
| 2026-04-21 13:06 | 52.97485 | 158.17219 | 18824 ft | 376 kts | 283° |
| 2026-04-21 13:07 | 52.97980 | 158.12947 | 19537 ft | 379 kts | 283° |
| 2026-04-21 13:07 | 52.98477 | 158.08638 | 20223 ft | 382 kts | 283° |
| 2026-04-21 13:07 | 52.98975 | 158.04296 | 20949 ft | 384 kts | 283° |
| 2026-04-21 13:07 | 52.99471 | 157.99933 | 21673 ft | 386 kts | 283° |
| 2026-04-21 13:08 | 52.99809 | 157.96972 | 22128 ft | 387 kts | 283° |
| 2026-04-21 13:08 | 53.00478 | 157.91126 | 23017 ft | 390 kts | 283° |
| 2026-04-21 13:08 | 53.00985 | 157.86689 | 23682 ft | 392 kts | 283° |
| 2026-04-21 13:08 | 53.01492 | 157.82225 | 24239 ft | 394 kts | 283° |
| 2026-04-21 13:09 | 53.01997 | 157.77752 | 24810 ft | 395 kts | 283° |
| 2026-04-21 13:09 | 53.02501 | 157.73268 | 25387 ft | 395 kts | 283° |
| 2026-04-21 13:09 | 53.03001 | 157.68775 | 25953 ft | 396 kts | 283° |
| 2026-04-21 13:09 | 53.03495 | 157.64335 | 26525 ft | 397 kts | 283° |
| 2026-04-21 13:10 | 53.03999 | 157.59823 | 27072 ft | 397 kts | 284° |
| 2026-04-21 13:10 | 53.04518 | 157.55315 | 27667 ft | 396 kts | 284° |
| 2026-04-21 13:10 | 53.05040 | 157.50807 | 28213 ft | 397 kts | 284° |
| 2026-04-21 13:10 | 53.05558 | 157.46294 | 28748 ft | 398 kts | 284° |
| 2026-04-21 13:11 | 53.06078 | 157.41762 | 29248 ft | 400 kts | 284° |
| 2026-04-21 13:11 | 53.06596 | 157.37214 | 29747 ft | 401 kts | 284° |
| 2026-04-21 13:11 | 53.07115 | 157.32641 | 30222 ft | 403 kts | 284° |
| 2026-04-21 13:11 | 53.07633 | 157.28062 | 30596 ft | 404 kts | 284° |
| 2026-04-21 13:12 | 53.08152 | 157.23453 | 30941 ft | 406 kts | 284° |
| 2026-04-21 13:12 | 53.08674 | 157.18821 | 31268 ft | 408 kts | 284° |
| 2026-04-21 13:12 | 53.09201 | 157.14168 | 31667 ft | 409 kts | 284° |
| 2026-04-21 13:12 | 53.09721 | 157.09591 | 32176 ft | 407 kts | 284° |
| 2026-04-21 13:13 | 53.10247 | 157.04974 | 32714 ft | 405 kts | 284° |
| 2026-04-21 13:13 | 53.10770 | 157.00385 | 33240 ft | 403 kts | 284° |
| 2026-04-21 13:13 | 53.11289 | 156.95820 | 33795 ft | 399 kts | 284° |
| 2026-04-21 13:13 | 53.11795 | 156.91310 | 34402 ft | 394 kts | 284° |
| 2026-04-21 13:14 | 53.12296 | 156.86832 | 34815 ft | 394 kts | 284° |
| 2026-04-21 13:14 | 53.12803 | 156.82325 | 35146 ft | 396 kts | 284° |
| 2026-04-21 13:14 | 53.13313 | 156.77809 | 35449 ft | 398 kts | 284° |
| 2026-04-21 13:14 | 53.13831 | 156.73248 | 35744 ft | 401 kts | 284° |
| 2026-04-21 13:15 | 53.14352 | 156.68677 | 36032 ft | 403 kts | 284° |
| 2026-04-21 13:15 | 53.14870 | 156.64140 | 36320 ft | 405 kts | 284° |
| 2026-04-21 13:15 | 53.15400 | 156.59523 | 36597 ft | 407 kts | 284° |
| 2026-04-21 13:15 | 53.15935 | 156.54878 | 36880 ft | 409 kts | 284° |
| 2026-04-21 13:16 | 53.16474 | 156.50213 | 37151 ft | 411 kts | 284° |
| 2026-04-21 13:16 | 53.17016 | 156.45527 | 37427 ft | 413 kts | 284° |
| 2026-04-21 13:16 | 53.17563 | 156.40813 | 37650 ft | 416 kts | 284° |
| 2026-04-21 13:16 | 53.18116 | 156.36056 | 37885 ft | 417 kts | 283° |
| 2026-04-21 13:17 | 53.18675 | 156.31302 | 38117 ft | 419 kts | 283° |
| 2026-04-21 13:17 | 53.19238 | 156.26529 | 38155 ft | 420 kts | 283° |
| 2026-04-21 13:17 | 53.20362 | 156.16979 | 38153 ft | 420 kts | 283° |
| 2026-04-21 13:18 | 53.21476 | 156.07485 | 38149 ft | 420 kts | 283° |
| 2026-04-21 13:18 | 53.22593 | 155.97918 | 38150 ft | 420 kts | 283° |
| 2026-04-21 13:19 | 53.23705 | 155.88349 | 38152 ft | 420 kts | 283° |
| 2026-04-21 13:19 | 53.24627 | 155.80393 | 38151 ft | 420 kts | 283° |
| 2026-04-21 13:20 | 53.25739 | 155.70827 | 38129 ft | 420 kts | 283° |
| 2026-04-21 13:20 | 53.26869 | 155.61257 | 38145 ft | 420 kts | 283° |
| 2026-04-21 13:21 | 53.27992 | 155.51685 | 38149 ft | 420 kts | 283° |
| 2026-04-21 13:21 | 53.29113 | 155.42101 | 38149 ft | 420 kts | 283° |
| 2026-04-21 13:22 | 53.30221 | 155.32584 | 38140 ft | 420 kts | 283° |
| 2026-04-21 13:22 | 53.31332 | 155.23001 | 38141 ft | 420 kts | 283° |
| 2026-04-21 13:23 | 53.32440 | 155.13402 | 38145 ft | 420 kts | 283° |
| 2026-04-21 13:23 | 53.33562 | 155.03800 | 38128 ft | 420 kts | 283° |
| 2026-04-21 13:24 | 53.34690 | 154.94198 | 38138 ft | 420 kts | 283° |
| 2026-04-21 13:24 | 53.35804 | 154.84657 | 38137 ft | 420 kts | 283° |
| 2026-04-21 13:25 | 53.36926 | 154.75043 | 38145 ft | 421 kts | 283° |
| 2026-04-21 13:25 | 53.38047 | 154.65400 | 38133 ft | 421 kts | 283° |
| 2026-04-21 13:26 | 53.39163 | 154.55749 | 38141 ft | 421 kts | 283° |
| 2026-04-21 13:26 | 53.40274 | 154.46113 | 38122 ft | 421 kts | 283° |
| 2026-04-21 13:27 | 53.41403 | 154.36529 | 38128 ft | 422 kts | 283° |
| 2026-04-21 13:27 | 53.42539 | 154.26877 | 38132 ft | 422 kts | 283° |
| 2026-04-21 13:28 | 53.43673 | 154.17202 | 38132 ft | 423 kts | 283° |
| 2026-04-21 13:28 | 53.44802 | 154.07519 | 38137 ft | 423 kts | 283° |
| 2026-04-21 13:29 | 53.45926 | 153.97826 | 38147 ft | 423 kts | 283° |
| 2026-04-21 13:29 | 53.47038 | 153.88183 | 38138 ft | 423 kts | 283° |
| 2026-04-21 13:30 | 53.48151 | 153.78472 | 38139 ft | 424 kts | 283° |
| 2026-04-21 13:30 | 53.49262 | 153.68736 | 38138 ft | 424 kts | 283° |
| 2026-04-21 13:31 | 53.50369 | 153.59007 | 38137 ft | 424 kts | 282° |
| 2026-04-21 13:31 | 53.51472 | 153.49280 | 38136 ft | 424 kts | 282° |
| 2026-04-21 13:32 | 53.52573 | 153.39541 | 38139 ft | 424 kts | 282° |
| 2026-04-21 13:32 | 53.53664 | 153.29866 | 38135 ft | 424 kts | 282° |
| 2026-04-21 13:33 | 53.54758 | 153.20119 | 38134 ft | 424 kts | 282° |
| 2026-04-21 13:33 | 53.55870 | 153.10386 | 38112 ft | 424 kts | 282° |
| 2026-04-21 13:34 | 53.56994 | 153.00650 | 38120 ft | 424 kts | 282° |
| 2026-04-21 13:34 | 53.58109 | 152.90961 | 38124 ft | 424 kts | 282° |
| 2026-04-21 13:35 | 53.59226 | 152.81210 | 38119 ft | 424 kts | 282° |
| 2026-04-21 13:35 | 53.60340 | 152.71454 | 38118 ft | 424 kts | 282° |
| 2026-04-21 13:36 | 53.61449 | 152.61696 | 38115 ft | 424 kts | 282° |
| 2026-04-21 13:36 | 53.62554 | 152.51930 | 38115 ft | 424 kts | 282° |
| 2026-04-21 13:37 | 53.63680 | 152.42172 | 38103 ft | 424 kts | 282° |
| 2026-04-21 13:37 | 53.64808 | 152.32468 | 38099 ft | 425 kts | 282° |
| 2026-04-21 13:38 | 53.65943 | 152.22682 | 38100 ft | 425 kts | 282° |
| 2026-04-21 13:38 | 53.67072 | 152.12901 | 38103 ft | 425 kts | 282° |
| 2026-04-21 13:39 | 53.68192 | 152.03160 | 38101 ft | 425 kts | 282° |
| 2026-04-21 13:39 | 53.69314 | 151.93360 | 38103 ft | 426 kts | 282° |
| 2026-04-21 13:40 | 53.70436 | 151.83543 | 38095 ft | 426 kts | 282° |
| 2026-04-21 13:40 | 53.71564 | 151.73711 | 38104 ft | 427 kts | 282° |
| 2026-04-21 13:41 | 53.72696 | 151.63861 | 38099 ft | 428 kts | 282° |
| 2026-04-21 13:41 | 53.73811 | 151.54062 | 38096 ft | 428 kts | 282° |
| 2026-04-21 13:42 | 53.74935 | 151.44188 | 38104 ft | 428 kts | 282° |
| 2026-04-21 13:42 | 53.76051 | 151.34293 | 38099 ft | 429 kts | 282° |
| 2026-04-21 13:43 | 53.77168 | 151.24397 | 38098 ft | 429 kts | 282° |
| 2026-04-21 13:43 | 53.78281 | 151.14495 | 38095 ft | 429 kts | 282° |
| 2026-04-21 13:44 | 53.79416 | 151.04594 | 38107 ft | 428 kts | 281° |
| 2026-04-21 13:44 | 53.80547 | 150.94770 | 38094 ft | 428 kts | 282° |
| 2026-04-21 13:45 | 53.81672 | 150.84879 | 38095 ft | 427 kts | 282° |
| 2026-04-21 13:45 | 53.82800 | 150.74991 | 38081 ft | 428 kts | 281° |
| 2026-04-21 13:46 | 53.83920 | 150.65092 | 38084 ft | 428 kts | 282° |
| 2026-04-21 13:46 | 53.85046 | 150.55188 | 38079 ft | 428 kts | 281° |
| 2026-04-21 13:47 | 53.86149 | 150.45352 | 38062 ft | 427 kts | 281° |
| 2026-04-21 13:47 | 53.87301 | 150.35456 | 38068 ft | 428 kts | 281° |
| 2026-04-21 13:48 | 53.88452 | 150.25562 | 38057 ft | 428 kts | 281° |
| 2026-04-21 13:48 | 53.89606 | 150.15647 | 38063 ft | 429 kts | 281° |
| 2026-04-21 13:49 | 53.90755 | 150.05768 | 38053 ft | 430 kts | 281° |
| 2026-04-21 13:49 | 53.91904 | 149.95811 | 38063 ft | 430 kts | 281° |
| 2026-04-21 13:50 | 53.93052 | 149.85851 | 38049 ft | 430 kts | 281° |
| 2026-04-21 13:50 | 53.94193 | 149.75885 | 38061 ft | 430 kts | 281° |
| 2026-04-21 13:51 | 53.95366 | 149.65896 | 38046 ft | 432 kts | 281° |
| 2026-04-21 13:51 | 53.96540 | 149.55949 | 38032 ft | 433 kts | 281° |
| 2026-04-21 13:52 | 53.97723 | 149.45902 | 38045 ft | 434 kts | 281° |
| 2026-04-21 13:52 | 53.98908 | 149.35850 | 38037 ft | 434 kts | 281° |
| 2026-04-21 13:53 | 54.00084 | 149.25828 | 38033 ft | 435 kts | 281° |
| 2026-04-21 13:53 | 54.01261 | 149.15736 | 38037 ft | 435 kts | 281° |
| 2026-04-21 13:54 | 54.02436 | 149.05628 | 38043 ft | 436 kts | 281° |
| 2026-04-21 13:54 | 54.03629 | 148.95501 | 38026 ft | 437 kts | 281° |
| 2026-04-21 13:55 | 54.04838 | 148.85355 | 38029 ft | 437 kts | 281° |
| 2026-04-21 13:55 | 54.06035 | 148.75256 | 38027 ft | 438 kts | 281° |
| 2026-04-21 13:56 | 54.07236 | 148.65087 | 38020 ft | 438 kts | 281° |
| 2026-04-21 13:56 | 54.08437 | 148.54903 | 38023 ft | 439 kts | 281° |
| 2026-04-21 13:57 | 54.09629 | 148.44718 | 38009 ft | 439 kts | 281° |
| 2026-04-21 13:57 | 54.10824 | 148.34527 | 38014 ft | 439 kts | 281° |
| 2026-04-21 13:58 | 54.12039 | 148.24326 | 38007 ft | 440 kts | 280° |
| 2026-04-21 13:58 | 54.13294 | 148.14103 | 37993 ft | 441 kts | 280° |
| 2026-04-21 13:59 | 54.14540 | 148.03847 | 38003 ft | 442 kts | 280° |
| 2026-04-21 13:59 | 54.15778 | 147.93566 | 38003 ft | 443 kts | 281° |
| 2026-04-21 14:00 | 54.17022 | 147.83279 | 37994 ft | 443 kts | 280° |
| 2026-04-21 14:00 | 54.18249 | 147.73040 | 37999 ft | 443 kts | 280° |
| 2026-04-21 14:01 | 54.19493 | 147.62721 | 38001 ft | 443 kts | 281° |
| 2026-04-21 14:01 | 54.20739 | 147.52397 | 37992 ft | 444 kts | 280° |
| 2026-04-21 14:02 | 54.22051 | 147.42131 | 37983 ft | 446 kts | 280° |
| 2026-04-21 14:03 | 54.24004 | 147.26552 | 37969 ft | 447 kts | 281° |
| 2026-04-21 14:03 | 54.25276 | 147.16132 | 37975 ft | 448 kts | 280° |
| 2026-04-21 14:04 | 54.26553 | 147.05705 | 37978 ft | 448 kts | 279° |
| 2026-04-21 14:04 | 54.27819 | 146.95347 | 37969 ft | 448 kts | 280° |
| 2026-04-21 14:05 | 54.29074 | 146.84902 | 37970 ft | 448 kts | 280° |
| 2026-04-21 14:05 | 54.30344 | 146.74447 | 37970 ft | 448 kts | 280° |
| 2026-04-21 14:06 | 54.31588 | 146.64058 | 37961 ft | 448 kts | 280° |
| 2026-04-21 14:06 | 54.32844 | 146.53604 | 37965 ft | 448 kts | 280° |
| 2026-04-21 14:07 | 54.34094 | 146.43140 | 37960 ft | 448 kts | 280° |
| 2026-04-21 14:07 | 54.35330 | 146.32664 | 37956 ft | 449 kts | 281° |
| 2026-04-21 14:08 | 54.36579 | 146.22177 | 37964 ft | 449 kts | 281° |
| 2026-04-21 14:08 | 54.37804 | 146.11676 | 37962 ft | 449 kts | 280° |
| 2026-04-21 14:09 | 54.39059 | 146.01236 | 37960 ft | 450 kts | 280° |
| 2026-04-21 14:09 | 54.40364 | 145.90697 | 37947 ft | 452 kts | 281° |
| 2026-04-21 14:10 | 54.41657 | 145.80116 | 37949 ft | 453 kts | 280° |
| 2026-04-21 14:10 | 54.42967 | 145.69515 | 37944 ft | 454 kts | 280° |
| 2026-04-21 14:11 | 54.44256 | 145.58888 | 37955 ft | 455 kts | 279° |
| 2026-04-21 14:11 | 54.45571 | 145.48238 | 37960 ft | 455 kts | 279° |
| 2026-04-21 14:12 | 54.46867 | 145.37657 | 37947 ft | 456 kts | 281° |
| 2026-04-21 14:12 | 54.48151 | 145.26981 | 37961 ft | 456 kts | 279° |
| 2026-04-21 14:13 | 54.49475 | 145.16308 | 37942 ft | 457 kts | 280° |
| 2026-04-21 14:13 | 54.50788 | 145.05593 | 37929 ft | 458 kts | 279° |
| 2026-04-21 14:14 | 54.52129 | 144.94853 | 37939 ft | 459 kts | 279° |
| 2026-04-21 14:14 | 54.53456 | 144.84093 | 37936 ft | 460 kts | 279° |
| 2026-04-21 14:15 | 54.54760 | 144.73372 | 37934 ft | 460 kts | 280° |
| 2026-04-21 14:15 | 54.56083 | 144.62567 | 37941 ft | 461 kts | 279° |
| 2026-04-21 14:16 | 54.57380 | 144.51745 | 37949 ft | 461 kts | 279° |
| 2026-04-21 14:16 | 54.58712 | 144.40940 | 37955 ft | 461 kts | 280° |
| 2026-04-21 14:17 | 54.60075 | 144.30105 | 37926 ft | 463 kts | 280° |
| 2026-04-21 14:17 | 54.61416 | 144.19231 | 37934 ft | 463 kts | 279° |
| 2026-04-21 14:18 | 54.62779 | 144.08417 | 37918 ft | 464 kts | 281° |
| 2026-04-21 14:18 | 54.64112 | 143.97519 | 37918 ft | 464 kts | 280° |
| 2026-04-21 14:19 | 54.65457 | 143.86611 | 37939 ft | 464 kts | 279° |
| 2026-04-21 14:19 | 54.66801 | 143.75691 | 37917 ft | 465 kts | 279° |
| 2026-04-21 14:20 | 54.68111 | 143.64759 | 37923 ft | 464 kts | 279° |
| 2026-04-21 14:20 | 54.69438 | 143.53906 | 37921 ft | 465 kts | 279° |
| 2026-04-21 14:21 | 54.70765 | 143.42962 | 37900 ft | 466 kts | 278° |
| 2026-04-21 14:21 | 54.72086 | 143.31995 | 37911 ft | 466 kts | 279° |
| 2026-04-21 14:22 | 54.73419 | 143.21011 | 37911 ft | 467 kts | 279° |
| 2026-04-21 14:22 | 54.74699 | 143.09991 | 37907 ft | 467 kts | 279° |
| 2026-04-21 14:23 | 54.75981 | 142.98956 | 37909 ft | 467 kts | 279° |
| 2026-04-21 14:23 | 54.77263 | 142.87921 | 37906 ft | 468 kts | 279° |
| 2026-04-21 14:24 | 54.78530 | 142.76935 | 37920 ft | 468 kts | 279° |
| 2026-04-21 14:24 | 54.79825 | 142.65855 | 37894 ft | 469 kts | 279° |
| 2026-04-21 14:25 | 54.81104 | 142.54755 | 37901 ft | 470 kts | 279° |
| 2026-04-21 14:25 | 54.82159 | 142.45502 | 37895 ft | 470 kts | 279° |
| 2026-04-21 14:26 | 54.83421 | 142.34362 | 37899 ft | 470 kts | 279° |
| 2026-04-21 14:26 | 54.84674 | 142.23216 | 37907 ft | 470 kts | 279° |
| 2026-04-21 14:27 | 54.85927 | 142.12133 | 37897 ft | 471 kts | 279° |
| 2026-04-21 14:27 | 54.87176 | 142.00976 | 37911 ft | 471 kts | 279° |
| 2026-04-21 14:28 | 54.88432 | 141.89793 | 37912 ft | 471 kts | 279° |
| 2026-04-21 14:28 | 54.89694 | 141.78601 | 37885 ft | 472 kts | 278° |
| 2026-04-21 14:29 | 54.90943 | 141.67445 | 37899 ft | 473 kts | 279° |
| 2026-04-21 14:29 | 54.92206 | 141.56195 | 37900 ft | 474 kts | 278° |
| 2026-04-21 14:30 | 54.93461 | 141.44942 | 37895 ft | 474 kts | 279° |
| 2026-04-21 14:30 | 54.94715 | 141.33668 | 37904 ft | 474 kts | 279° |
| 2026-04-21 14:31 | 54.95969 | 141.22405 | 37900 ft | 474 kts | 279° |
| 2026-04-21 14:31 | 54.97209 | 141.11201 | 37932 ft | 475 kts | 278° |
| 2026-04-21 14:32 | 54.98474 | 140.99911 | 37895 ft | 476 kts | 279° |
| 2026-04-21 14:32 | 54.99742 | 140.88596 | 37897 ft | 477 kts | 279° |
| 2026-04-21 14:33 | 55.01004 | 140.77254 | 37901 ft | 477 kts | 278° |
| 2026-04-21 14:33 | 55.02268 | 140.65883 | 37904 ft | 478 kts | 278° |
| 2026-04-21 14:34 | 55.03526 | 140.54505 | 37906 ft | 478 kts | 278° |
| 2026-04-21 14:34 | 55.04782 | 140.43119 | 37912 ft | 478 kts | 278° |
| 2026-04-21 14:35 | 55.06030 | 140.31794 | 37911 ft | 478 kts | 278° |
| 2026-04-21 14:35 | 55.07279 | 140.20392 | 37930 ft | 479 kts | 278° |
| 2026-04-21 14:36 | 55.08542 | 140.08968 | 37929 ft | 479 kts | 278° |
| 2026-04-21 14:36 | 55.09803 | 139.97535 | 37899 ft | 480 kts | 278° |
| 2026-04-21 14:37 | 55.11061 | 139.86077 | 37924 ft | 480 kts | 278° |
| 2026-04-21 14:37 | 55.12313 | 139.74632 | 37932 ft | 479 kts | 278° |
| 2026-04-21 14:38 | 55.13553 | 139.63207 | 37927 ft | 478 kts | 278° |
| 2026-04-21 14:38 | 55.14781 | 139.51864 | 37921 ft | 478 kts | 278° |
| 2026-04-21 14:39 | 55.16019 | 139.40448 | 37913 ft | 478 kts | 278° |
| 2026-04-21 14:39 | 55.17258 | 139.29013 | 37933 ft | 478 kts | 278° |
| 2026-04-21 14:40 | 55.18510 | 139.17579 | 37922 ft | 478 kts | 278° |
| 2026-04-21 14:40 | 55.19754 | 139.06135 | 37919 ft | 478 kts | 278° |
| 2026-04-21 14:41 | 55.20984 | 138.94768 | 37915 ft | 478 kts | 278° |
| 2026-04-21 14:41 | 55.22228 | 138.83302 | 37912 ft | 479 kts | 278° |
| 2026-04-21 14:42 | 55.23464 | 138.71825 | 37927 ft | 479 kts | 278° |
| 2026-04-21 14:42 | 55.24700 | 138.60352 | 37925 ft | 479 kts | 278° |
| 2026-04-21 14:43 | 55.25924 | 138.48962 | 37945 ft | 479 kts | 278° |
| 2026-04-21 14:43 | 55.27149 | 138.37494 | 37947 ft | 478 kts | 278° |
| 2026-04-21 14:44 | 55.28377 | 138.26027 | 37961 ft | 478 kts | 278° |
| 2026-04-21 14:44 | 55.29600 | 138.14567 | 37950 ft | 478 kts | 278° |
| 2026-04-21 14:45 | 55.30818 | 138.03109 | 37952 ft | 477 kts | 278° |
| 2026-04-21 14:45 | 55.32028 | 137.91726 | 37957 ft | 477 kts | 278° |
| 2026-04-21 14:46 | 55.33241 | 137.80262 | 37963 ft | 477 kts | 278° |
| 2026-04-21 14:46 | 55.34457 | 137.68813 | 37981 ft | 477 kts | 278° |
| 2026-04-21 14:47 | 55.35671 | 137.57355 | 37968 ft | 476 kts | 278° |
| 2026-04-21 14:47 | 55.36884 | 137.45896 | 37981 ft | 476 kts | 278° |
| 2026-04-21 14:48 | 55.38101 | 137.34515 | 37982 ft | 477 kts | 278° |
| 2026-04-21 14:48 | 55.39318 | 137.23043 | 37971 ft | 477 kts | 277° |
| 2026-04-21 14:49 | 55.40548 | 137.11565 | 37981 ft | 477 kts | 277° |
| 2026-04-21 14:49 | 55.41784 | 137.00101 | 37965 ft | 477 kts | 278° |
| 2026-04-21 14:50 | 55.42800 | 136.90562 | 37982 ft | 477 kts | 278° |
| 2026-04-21 14:50 | 55.44239 | 136.77150 | 37982 ft | 477 kts | 278° |
| 2026-04-21 14:51 | 55.45458 | 136.65666 | 37999 ft | 477 kts | 277° |
| 2026-04-21 14:51 | 55.46673 | 136.54259 | 37995 ft | 477 kts | 277° |
| 2026-04-21 14:52 | 55.47886 | 136.42765 | 38013 ft | 476 kts | 278° |
| 2026-04-21 14:52 | 55.49081 | 136.31279 | 38003 ft | 476 kts | 278° |
| 2026-04-21 14:53 | 55.50273 | 136.19797 | 38010 ft | 475 kts | 277° |
| 2026-04-21 14:53 | 55.51461 | 136.08326 | 38007 ft | 475 kts | 277° |
| 2026-04-21 14:54 | 55.52647 | 135.96856 | 38004 ft | 475 kts | 277° |
| 2026-04-21 14:54 | 55.53838 | 135.85434 | 38003 ft | 475 kts | 277° |
| 2026-04-21 14:55 | 55.55045 | 135.73957 | 37998 ft | 476 kts | 277° |
| 2026-04-21 14:55 | 55.56251 | 135.62462 | 37999 ft | 476 kts | 277° |
| 2026-04-21 14:56 | 55.57453 | 135.51034 | 38016 ft | 476 kts | 277° |
| 2026-04-21 14:56 | 55.58679 | 135.39530 | 38005 ft | 476 kts | 277° |
| 2026-04-21 14:57 | 55.59906 | 135.28025 | 38009 ft | 476 kts | 277° |
| 2026-04-21 14:57 | 55.61131 | 135.16500 | 37990 ft | 477 kts | 277° |
| 2026-04-21 14:58 | 55.62354 | 135.04957 | 37984 ft | 478 kts | 277° |
| 2026-04-21 14:58 | 55.63581 | 134.93384 | 37984 ft | 478 kts | 277° |
| 2026-04-21 14:59 | 55.64806 | 134.81811 | 37992 ft | 478 kts | 277° |
| 2026-04-21 14:59 | 55.66022 | 134.70308 | 37986 ft | 478 kts | 277° |
| 2026-04-21 15:00 | 55.67230 | 134.58715 | 37978 ft | 479 kts | 277° |
| 2026-04-21 15:00 | 55.68413 | 134.47074 | 37990 ft | 480 kts | 277° |
| 2026-04-21 15:01 | 55.69619 | 134.35403 | 37982 ft | 482 kts | 277° |
| 2026-04-21 15:01 | 55.70822 | 134.23706 | 37971 ft | 482 kts | 277° |
| 2026-04-21 15:02 | 55.72019 | 134.12071 | 37982 ft | 483 kts | 277° |
| 2026-04-21 15:02 | 55.73222 | 134.00337 | 37974 ft | 483 kts | 277° |
| 2026-04-21 15:03 | 55.74364 | 133.88603 | 38015 ft | 480 kts | 277° |
| 2026-04-21 15:03 | 55.75472 | 133.76941 | 38020 ft | 478 kts | 277° |
| 2026-04-21 15:04 | 55.76574 | 133.65334 | 38015 ft | 476 kts | 277° |
| 2026-04-21 15:04 | 55.77668 | 133.53811 | 38017 ft | 475 kts | 277° |
| 2026-04-21 15:05 | 55.78773 | 133.42255 | 38022 ft | 474 kts | 277° |
| 2026-04-21 15:05 | 55.80404 | 133.24930 | 38017 ft | 473 kts | 277° |
| 2026-04-21 15:06 | 55.81446 | 133.13459 | 38009 ft | 473 kts | 277° |
| 2026-04-21 15:06 | 55.82494 | 133.01908 | 37996 ft | 472 kts | 277° |
| 2026-04-21 15:07 | 55.83540 | 132.90373 | 37994 ft | 472 kts | 277° |
| 2026-04-21 15:07 | 55.84586 | 132.78830 | 37990 ft | 472 kts | 277° |
| 2026-04-21 15:08 | 55.85625 | 132.67372 | 37988 ft | 472 kts | 277° |
| 2026-04-21 15:08 | 55.86672 | 132.55833 | 37980 ft | 472 kts | 277° |
| 2026-04-21 15:09 | 55.87717 | 132.44293 | 38006 ft | 472 kts | 277° |
| 2026-04-21 15:09 | 55.88772 | 132.32743 | 37981 ft | 473 kts | 277° |
| 2026-04-21 15:10 | 55.89834 | 132.21148 | 37967 ft | 474 kts | 277° |
| 2026-04-21 15:10 | 55.90889 | 132.09630 | 37967 ft | 474 kts | 277° |
| 2026-04-21 15:11 | 55.91960 | 131.98010 | 37969 ft | 476 kts | 277° |
| 2026-04-21 15:11 | 55.93044 | 131.86366 | 37965 ft | 476 kts | 277° |
| 2026-04-21 15:12 | 55.94127 | 131.74700 | 37963 ft | 477 kts | 277° |
| 2026-04-21 15:12 | 55.95212 | 131.63000 | 37965 ft | 478 kts | 277° |
| 2026-04-21 15:13 | 55.96297 | 131.51285 | 37975 ft | 478 kts | 277° |
| 2026-04-21 15:13 | 55.97373 | 131.39664 | 37989 ft | 478 kts | 277° |
| 2026-04-21 15:14 | 55.98518 | 131.27920 | 37972 ft | 480 kts | 277° |
| 2026-04-21 15:14 | 55.99683 | 131.16140 | 37964 ft | 482 kts | 277° |
| 2026-04-21 15:15 | 56.00851 | 131.04313 | 37961 ft | 483 kts | 277° |
| 2026-04-21 15:15 | 56.02018 | 130.92477 | 37968 ft | 484 kts | 277° |
| 2026-04-21 15:16 | 56.03186 | 130.80613 | 37965 ft | 485 kts | 277° |
| 2026-04-21 15:16 | 56.04348 | 130.68756 | 37996 ft | 483 kts | 277° |
| 2026-04-21 15:17 | 56.05493 | 130.57029 | 37998 ft | 481 kts | 277° |
| 2026-04-21 15:17 | 56.06645 | 130.45233 | 37998 ft | 480 kts | 277° |
| 2026-04-21 15:18 | 56.07796 | 130.33470 | 37982 ft | 479 kts | 277° |
| 2026-04-21 15:18 | 56.08936 | 130.21796 | 37981 ft | 479 kts | 277° |
| 2026-04-21 15:19 | 56.10082 | 130.10039 | 38001 ft | 478 kts | 277° |
| 2026-04-21 15:19 | 56.11229 | 129.98333 | 37995 ft | 477 kts | 277° |
| 2026-04-21 15:20 | 56.12378 | 129.86622 | 37973 ft | 476 kts | 277° |
| 2026-04-21 15:20 | 56.13526 | 129.74930 | 37990 ft | 476 kts | 277° |
| 2026-04-21 15:21 | 56.14666 | 129.63309 | 37979 ft | 476 kts | 277° |
| 2026-04-21 15:21 | 56.15813 | 129.51621 | 37999 ft | 476 kts | 277° |
| 2026-04-21 15:22 | 56.16959 | 129.39924 | 37976 ft | 476 kts | 277° |
| 2026-04-21 15:22 | 56.18109 | 129.28209 | 37971 ft | 476 kts | 277° |
| 2026-04-21 15:23 | 56.19257 | 129.16497 | 37964 ft | 477 kts | 277° |
| 2026-04-21 15:23 | 56.20407 | 129.04768 | 37963 ft | 477 kts | 277° |
| 2026-04-21 15:24 | 56.21543 | 128.93114 | 37965 ft | 477 kts | 277° |
| 2026-04-21 15:24 | 56.22683 | 128.81376 | 37970 ft | 477 kts | 277° |
| 2026-04-21 15:25 | 56.23825 | 128.69637 | 37956 ft | 476 kts | 277° |
| 2026-04-21 15:25 | 56.24968 | 128.57906 | 37953 ft | 476 kts | 277° |
| 2026-04-21 15:26 | 56.26110 | 128.46188 | 37936 ft | 475 kts | 277° |
| 2026-04-21 15:26 | 56.27243 | 128.34551 | 37934 ft | 475 kts | 277° |
| 2026-04-21 15:27 | 56.28383 | 128.22835 | 37941 ft | 475 kts | 277° |
| 2026-04-21 15:27 | 56.29524 | 128.11126 | 37941 ft | 475 kts | 277° |
| 2026-04-21 15:28 | 56.30665 | 127.99420 | 37938 ft | 474 kts | 277° |
| 2026-04-21 15:28 | 56.31806 | 127.87722 | 37939 ft | 474 kts | 277° |
| 2026-04-21 15:29 | 56.32946 | 127.76028 | 37944 ft | 474 kts | 277° |
| 2026-04-21 15:29 | 56.34089 | 127.64317 | 37944 ft | 474 kts | 277° |
| 2026-04-21 15:30 | 56.35233 | 127.52693 | 37955 ft | 474 kts | 277° |
| 2026-04-21 15:30 | 56.36389 | 127.40993 | 37951 ft | 474 kts | 277° |
| 2026-04-21 15:31 | 56.37351 | 127.31264 | 37950 ft | 474 kts | 277° |
| 2026-04-21 15:31 | 56.38697 | 127.17651 | 37954 ft | 474 kts | 277° |
| 2026-04-21 15:32 | 56.39667 | 127.07847 | 37946 ft | 474 kts | 277° |
| 2026-04-21 15:32 | 56.40827 | 126.96143 | 37959 ft | 473 kts | 277° |
| 2026-04-21 15:33 | 56.41997 | 126.84450 | 37951 ft | 473 kts | 277° |